^^
Your Local Weather - Clay, NY Station Historical Data
Daily Summary for January 22, 2017 Units:  English    Metric   Both
« Previous Day
Next Day »
Daily Weekly Monthly Yearly Custom
  High: Low: Average:
Temperature: 51.8 °F 33.2 °F 42 °F
Dew Point: 44.8 °F 31.4 °F 39.1 °F
Humidity: 95% 75% 90%
Wind Speed: 4.0mph 0.0mph 1mph
Wind Gust: 7.0mph - -
Wind- - East
Pressure: 29.72 in 29.66 in -
Precipitation: 0.00 in    
Historical Graphs
 
 
Tabular Data for January 22, 2017
Time Temperature Dew Point Pressure Wind Wind Speed Wind Gust Humidity Rainfall Rate (Hourly) solar
00:04 42.2 °F 40.0 °F 29.67 in ESE 1.0 mph 2.0 mph 92% 0.00 in 0 W/m2
00:10 42.2 °F 40.0 °F 29.67 in Calm     92% 0.00 in 0 W/m2
00:16 42.1 °F 39.9 °F 29.67 in Calm     92% 0.00 in 0 W/m2
00:22 41.9 °F 39.7 °F 29.66 in Calm   1.0 mph 92% 0.00 in 0 W/m2
00:28 41.6 °F 39.4 °F 29.67 in Calm   1.0 mph 92% 0.00 in 0 W/m2
00:34 41.5 °F 39.3 °F 29.67 in Calm     92% 0.00 in 0 W/m2
00:40 41.3 °F 39.2 °F 29.67 in Calm     92% 0.00 in 0 W/m2
00:46 41.1 °F 39.0 °F 29.67 in Calm     92% 0.00 in 0 W/m2
00:52 41.2 °F 39.1 °F 29.67 in Calm     92% 0.00 in 0 W/m2
00:58 41.3 °F 39.4 °F 29.67 in NE 1.0 mph 2.0 mph 93% 0.00 in 0 W/m2
01:04 41.4 °F 39.5 °F 29.67 in NE 1.0 mph 2.0 mph 93% 0.00 in 0 W/m2
01:10 41.5 °F 39.6 °F 29.67 in ENE 1.0 mph 1.0 mph 93% 0.00 in 0 W/m2
01:16 41.6 °F 39.7 °F 29.67 in ENE 1.0 mph 2.0 mph 93% 0.00 in 0 W/m2
01:22 41.7 °F 39.8 °F 29.67 in ENE 1.0 mph 2.0 mph 93% 0.00 in 0 W/m2
01:28 41.8 °F 39.9 °F 29.67 in East 1.0 mph 3.0 mph 93% 0.00 in 0 W/m2
01:34 41.8 °F 39.9 °F 29.67 in Calm   1.0 mph 93% 0.00 in 0 W/m2
01:40 41.8 °F 39.9 °F 29.67 in Calm     93% 0.00 in 0 W/m2
01:46 42.0 °F 40.1 °F 29.67 in ESE 1.0 mph 1.0 mph 93% 0.00 in 0 W/m2
01:52 42.0 °F 40.1 °F 29.67 in ESE 1.0 mph 3.0 mph 93% 0.00 in 0 W/m2
01:58 42.0 °F 40.1 °F 29.67 in Calm   3.0 mph 93% 0.00 in 0 W/m2
02:04 42.0 °F 39.8 °F 29.67 in Calm     92% 0.00 in 0 W/m2
02:10 42.0 °F 39.8 °F 29.67 in Calm     92% 0.00 in 0 W/m2
02:16 42.0 °F 39.8 °F 29.67 in Calm   1.0 mph 92% 0.00 in 0 W/m2
02:22 42.1 °F 39.9 °F 29.67 in Calm     92% 0.00 in 0 W/m2
02:28 42.0 °F 39.8 °F 29.67 in Calm     92% 0.00 in 0 W/m2
02:34 42.0 °F 39.8 °F 29.67 in Calm     92% 0.00 in 0 W/m2
02:40 42.0 °F 39.8 °F 29.67 in Calm     92% 0.00 in 0 W/m2
02:46 42.1 °F 39.9 °F 29.67 in Calm     92% 0.00 in 0 W/m2
02:52 41.6 °F 39.4 °F 29.67 in Calm     92% 0.00 in 0 W/m2
02:58 41.2 °F 39.1 °F 29.67 in Calm     92% 0.00 in 0 W/m2
03:04 41.1 °F 39.0 °F 29.67 in Calm     92% 0.00 in 0 W/m2
03:10 40.9 °F 38.8 °F 29.67 in Calm     92% 0.00 in 0 W/m2
03:16 40.8 °F 38.7 °F 29.67 in Calm     92% 0.00 in 0 W/m2
03:22 40.8 °F 38.7 °F 29.67 in Calm     92% 0.00 in 0 W/m2
03:28 40.7 °F 38.8 °F 29.66 in Calm     93% 0.00 in 0 W/m2
03:34 40.4 °F 38.3 °F 29.66 in Calm     92% 0.00 in 0 W/m2
03:40 39.8 °F 37.7 °F 29.66 in Calm     92% 0.00 in 0 W/m2
03:46 39.2 °F 37.1 °F 29.66 in Calm     92% 0.00 in 0 W/m2
03:52 39.0 °F 36.9 °F 29.66 in Calm     92% 0.00 in 0 W/m2
03:58 38.6 °F 36.8 °F 29.66 in Calm     93% 0.00 in 0 W/m2
04:04 38.1 °F 36.0 °F 29.66 in Calm     92% 0.00 in 0 W/m2
04:10 37.9 °F 35.8 °F 29.66 in Calm     92% 0.00 in 0 W/m2
04:16 37.6 °F 35.8 °F 29.66 in Calm     93% 0.00 in 0 W/m2
04:22 37.5 °F 35.7 °F 29.66 in Calm     93% 0.00 in 0 W/m2
04:28 37.1 °F 35.3 °F 29.66 in Calm     93% 0.00 in 0 W/m2
04:34 36.7 °F 34.9 °F 29.66 in Calm     93% 0.00 in 0 W/m2
04:40 36.6 °F 34.8 °F 29.66 in Calm     93% 0.00 in 0 W/m2
04:46 37.0 °F 35.2 °F 29.66 in Calm     93% 0.00 in 0 W/m2
04:52 36.8 °F 35.0 °F 29.66 in Calm     93% 0.00 in 0 W/m2
04:58 36.6 °F 34.8 °F 29.66 in Calm     93% 0.00 in 0 W/m2
05:04 36.3 °F 34.5 °F 29.66 in Calm     93% 0.00 in 0 W/m2
05:10 36.0 °F 34.2 °F 29.66 in Calm     93% 0.00 in 0 W/m2
05:16 35.7 °F 33.9 °F 29.66 in Calm     93% 0.00 in 0 W/m2
05:22 35.3 °F 33.5 °F 29.66 in Calm     93% 0.00 in 0 W/m2
05:29 35.0 °F 33.2 °F 29.66 in Calm     93% 0.00 in 0 W/m2
05:34 34.7 °F 32.9 °F 29.66 in Calm     93% 0.00 in 0 W/m2
05:40 34.5 °F 32.7 °F 29.66 in Calm     93% 0.00 in 0 W/m2
05:46 34.4 °F 32.6 °F 29.66 in Calm     93% 0.00 in 0 W/m2
05:52 34.3 °F 32.5 °F 29.66 in Calm     93% 0.00 in 0 W/m2
05:58 34.2 °F 32.4 °F 29.67 in Calm     93% 0.00 in 0 W/m2
06:04 34.3 °F 32.5 °F 29.67 in Calm     93% 0.00 in 0 W/m2
06:10 34.3 °F 32.5 °F 29.67 in Calm     93% 0.00 in 0 W/m2
06:16 34.1 °F 32.3 °F 29.67 in Calm     93% 0.00 in 0 W/m2
06:22 33.9 °F 32.1 °F 29.67 in Calm     93% 0.00 in 0 W/m2
06:28 33.7 °F 31.9 °F 29.67 in Calm     93% 0.00 in 0 W/m2
06:34 33.5 °F 31.7 °F 29.67 in Calm     93% 0.00 in 0 W/m2
06:40 33.4 °F 31.6 °F 29.67 in Calm     93% 0.00 in 0 W/m2
06:46 33.3 °F 31.5 °F 29.67 in Calm     93% 0.00 in 0 W/m2
06:52 33.2 °F 31.4 °F 29.67 in Calm     93% 0.00 in 0 W/m2
06:58 33.6 °F 32.1 °F 29.67 in Calm     94% 0.00 in 0 W/m2
07:04 33.8 °F 32.3 °F 29.68 in Calm     94% 0.00 in 0 W/m2
07:10 34.1 °F 32.6 °F 29.67 in Calm     94% 0.00 in 0 W/m2
07:16 33.9 °F 32.4 °F 29.68 in Calm     94% 0.00 in 0 W/m2
07:22 33.9 °F 32.4 °F 29.68 in Calm     94% 0.00 in 0 W/m2
07:28 33.8 °F 32.3 °F 29.68 in Calm     94% 0.00 in 0 W/m2
07:34 33.7 °F 32.2 °F 29.68 in Calm     94% 0.00 in 7 W/m2
07:40 33.7 °F 32.2 °F 29.68 in Calm     94% 0.00 in 11 W/m2
07:46 33.7 °F 32.2 °F 29.68 in Calm     94% 0.00 in 16 W/m2
07:52 33.6 °F 32.1 °F 29.68 in Calm     94% 0.00 in 26 W/m2
07:58 33.8 °F 32.3 °F 29.68 in Calm     94% 0.00 in 35 W/m2
08:04 33.8 °F 32.3 °F 29.67 in Calm     94% 0.00 in 44 W/m2
08:10 33.8 °F 32.3 °F 29.67 in Calm     94% 0.00 in 56 W/m2
08:16 34.0 °F 32.5 °F 29.67 in Calm     94% 0.00 in 65 W/m2
08:22 34.1 °F 32.6 °F 29.67 in Calm     94% 0.00 in 67 W/m2
08:28 34.4 °F 32.9 °F 29.67 in Calm     94% 0.00 in 49 W/m2
08:34 34.7 °F 33.2 °F 29.67 in Calm     94% 0.00 in 54 W/m2
08:40 35.6 °F 34.0 °F 29.67 in Calm   2.0 mph 94% 0.00 in 60 W/m2
08:46 36.8 °F 35.2 °F 29.66 in ENE 1.0 mph 2.0 mph 94% 0.00 in 77 W/m2
08:52 38.1 °F 36.5 °F 29.66 in ENE 1.0 mph 2.0 mph 94% 0.00 in 67 W/m2
08:58 38.4 °F 37.1 °F 29.66 in ENE 1.0 mph 3.0 mph 95% 0.00 in 77 W/m2
09:04 38.8 °F 37.5 °F 29.67 in ENE 1.0 mph 1.0 mph 95% 0.00 in 53 W/m2
09:10 39.3 °F 38.0 °F 29.67 in Calm     95% 0.00 in 62 W/m2
09:16 39.7 °F 38.4 °F 29.68 in ESE 1.0 mph 1.0 mph 95% 0.00 in 86 W/m2
09:22 40.1 °F 38.8 °F 29.68 in ESE 1.0 mph 1.0 mph 95% 0.00 in 95 W/m2
09:28 40.3 °F 39.0 °F 29.69 in East 1.0 mph 2.0 mph 95% 0.00 in 90 W/m2
09:34 40.4 °F 39.1 °F 29.69 in SE 2.0 mph 2.0 mph 95% 0.00 in 113 W/m2
09:40 40.5 °F 39.2 °F 29.70 in ESE 1.0 mph 1.0 mph 95% 0.00 in 70 W/m2
09:46 40.6 °F 39.3 °F 29.70 in Calm   1.0 mph 95% 0.00 in 98 W/m2
09:52 40.6 °F 39.3 °F 29.72 in Calm     95% 0.00 in 95 W/m2
09:58 40.6 °F 39.3 °F 29.72 in SE 1.0 mph 2.0 mph 95% 0.00 in 91 W/m2
10:04 40.8 °F 39.5 °F 29.72 in Calm   1.0 mph 95% 0.00 in 90 W/m2
10:10 40.9 °F 39.6 °F 29.72 in Calm   2.0 mph 95% 0.00 in 100 W/m2
10:16 41.2 °F 39.9 °F 29.72 in North 1.0 mph 2.0 mph 95% 0.00 in 132 W/m2
10:22 41.3 °F 40.0 °F 29.72 in North 1.0 mph 3.0 mph 95% 0.00 in 118 W/m2
10:28 41.3 °F 40.0 °F 29.72 in North 1.0 mph 5.0 mph 95% 0.00 in 181 W/m2
10:34 41.2 °F 39.9 °F 29.72 in North 2.0 mph 3.0 mph 95% 0.00 in 185 W/m2
10:42 41.1 °F 39.8 °F 29.72 in NE 2.0 mph 2.0 mph 95% 0.00 in 206 W/m2
10:48 41.1 °F 39.8 °F 29.72 in NNW 2.0 mph 3.0 mph 95% 0.00 in 155 W/m2
10:54 41.2 °F 39.9 °F 29.72 in East 2.0 mph 2.0 mph 95% 0.00 in 130 W/m2
11:00 41.3 °F 40.0 °F 29.72 in ENE 2.0 mph 2.0 mph 95% 0.00 in 151 W/m2
11:06 41.6 °F 40.3 °F 29.72 in ENE 1.0 mph 2.0 mph 95% 0.00 in 139 W/m2
11:12 42.0 °F 40.7 °F 29.72 in East 1.0 mph 2.0 mph 95% 0.00 in 114 W/m2
11:18 42.1 °F 40.8 °F 29.72 in ENE 2.0 mph 2.0 mph 95% 0.00 in 100 W/m2
11:24 42.3 °F 41.0 °F 29.72 in ESE 2.0 mph 3.0 mph 95% 0.00 in 160 W/m2
11:30 42.9 °F 41.6 °F 29.71 in ENE 2.0 mph 3.0 mph 95% 0.00 in 202 W/m2
11:36 43.3 °F 42.0 °F 29.71 in East 2.0 mph 3.0 mph 95% 0.00 in 200 W/m2
11:42 43.8 °F 42.5 °F 29.71 in NE 1.0 mph 2.0 mph 95% 0.00 in 185 W/m2
11:48 44.3 °F 43.0 °F 29.71 in NE 1.0 mph 2.0 mph 95% 0.00 in 171 W/m2
11:54 44.4 °F 42.8 °F 29.71 in ENE 1.0 mph 3.0 mph 94% 0.00 in 144 W/m2
12:00 44.8 °F 42.9 °F 29.70 in ENE 2.0 mph 3.0 mph 93% 0.00 in 151 W/m2
12:06 45.1 °F 42.9 °F 29.70 in ENE 2.0 mph 3.0 mph 92% 0.00 in 163 W/m2
12:12 45.6 °F 43.1 °F 29.70 in SSE 1.0 mph 4.0 mph 91% 0.00 in 179 W/m2
12:18 46.1 °F 43.0 °F 29.70 in ENE 1.0 mph 4.0 mph 89% 0.00 in 214 W/m2
12:24 46.3 °F 42.9 °F 29.70 in ENE 2.0 mph 2.0 mph 88% 0.00 in 192 W/m2
12:30 46.5 °F 42.8 °F 29.70 in NE 1.0 mph 1.0 mph 87% 0.00 in 190 W/m2
12:36 46.8 °F 43.1 °F 29.69 in NE 1.0 mph 2.0 mph 87% 0.00 in 214 W/m2
12:42 47.5 °F 43.5 °F 29.69 in North 1.0 mph 1.0 mph 86% 0.00 in 218 W/m2
12:48 47.6 °F 43.3 °F 29.69 in NE 2.0 mph 3.0 mph 85% 0.00 in 202 W/m2
12:54 47.7 °F 43.1 °F 29.68 in North 2.0 mph 4.0 mph 84% 0.00 in 169 W/m2
13:00 47.8 °F 43.2 °F 29.68 in NNE 2.0 mph 4.0 mph 84% 0.00 in 139 W/m2
13:06 47.7 °F 43.1 °F 29.67 in North 2.0 mph 4.0 mph 84% 0.00 in 158 W/m2
13:12 47.8 °F 43.2 °F 29.67 in NNE 2.0 mph 4.0 mph 84% 0.00 in 220 W/m2
13:18 47.8 °F 43.2 °F 29.67 in ENE 4.0 mph 5.0 mph 84% 0.00 in 330 W/m2
13:24 48.7 °F 43.8 °F 29.67 in East 4.0 mph 7.0 mph 83% 0.00 in 515 W/m2
13:30 48.6 °F 43.4 °F 29.66 in North 4.0 mph 4.0 mph 82% 0.00 in 399 W/m2
13:36 48.5 °F 43.3 °F 29.67 in NE 4.0 mph 4.0 mph 82% 0.00 in 367 W/m2
13:42 48.8 °F 43.5 °F 29.66 in NE 4.0 mph 4.0 mph 82% 0.00 in 325 W/m2
13:50 48.6 °F 43.4 °F 29.66 in East 4.0 mph 4.0 mph 82% 0.00 in 229 W/m2
13:56 48.8 °F 43.5 °F 29.66 in East 3.0 mph 6.0 mph 82% 0.00 in 195 W/m2
14:02 48.5 °F 42.9 °F 29.66 in ENE 4.0 mph 6.0 mph 81% 0.00 in 174 W/m2
14:08 49.0 °F 43.7 °F 29.66 in East 4.0 mph 6.0 mph 82% 0.00 in 223 W/m2
14:14 49.2 °F 43.6 °F 29.66 in East 2.0 mph 3.0 mph 81% 0.00 in 237 W/m2
14:20 49.3 °F 43.4 °F 29.66 in NE 2.0 mph 2.0 mph 80% 0.00 in 234 W/m2
14:26 49.6 °F 43.7 °F 29.66 in NNE 2.0 mph 4.0 mph 80% 0.00 in 227 W/m2
14:32 49.8 °F 43.9 °F 29.66 in NE 2.0 mph 3.0 mph 80% 0.00 in 292 W/m2
14:38 50.7 °F 44.8 °F 29.66 in ENE 2.0 mph 3.0 mph 80% 0.00 in 334 W/m2
14:44 51.0 °F 44.4 °F 29.66 in NNE 2.0 mph 3.0 mph 78% 0.00 in 323 W/m2
14:50 50.7 °F 43.8 °F 29.66 in East 2.0 mph 2.0 mph 77% 0.00 in 120 W/m2
14:56 50.7 °F 44.1 °F 29.66 in NNE 2.0 mph 2.0 mph 78% 0.00 in 169 W/m2
15:02 51.1 °F 44.5 °F 29.66 in East 1.0 mph 3.0 mph 78% 0.00 in 207 W/m2
15:08 51.5 °F 44.2 °F 29.66 in NNE 1.0 mph 6.0 mph 76% 0.00 in 202 W/m2
15:14 51.5 °F 44.5 °F 29.66 in NE 2.0 mph 2.0 mph 77% 0.00 in 218 W/m2
15:20 51.8 °F 44.5 °F 29.66 in North 2.0 mph 2.0 mph 76% 0.00 in 200 W/m2
15:26 51.6 °F 43.9 °F 29.67 in NE 2.0 mph 3.0 mph 75% 0.00 in 76 W/m2
15:32 51.0 °F 44.0 °F 29.67 in NE 2.0 mph 2.0 mph 77% 0.00 in 58 W/m2
15:38 50.5 °F 43.6 °F 29.67 in East 2.0 mph 6.0 mph 77% 0.00 in 62 W/m2
15:44 50.3 °F 43.7 °F 29.67 in NNE 2.0 mph 3.0 mph 78% 0.00 in 46 W/m2
15:50 50.2 °F 43.6 °F 29.67 in NE 2.0 mph 2.0 mph 78% 0.00 in 40 W/m2
15:56 50.1 °F 43.5 °F 29.67 in NE 2.0 mph 2.0 mph 78% 0.00 in 35 W/m2
16:02 49.8 °F 43.5 °F 29.67 in NE 2.0 mph 2.0 mph 79% 0.00 in 35 W/m2
16:08 49.6 °F 43.4 °F 29.67 in ENE 2.0 mph 3.0 mph 79% 0.00 in 32 W/m2
16:14 49.4 °F 43.2 °F 29.68 in NE 2.0 mph 3.0 mph 79% 0.00 in 28 W/m2
16:20 49.2 °F 43.3 °F 29.68 in East 2.0 mph 2.0 mph 80% 0.00 in 23 W/m2
16:26 49.1 °F 43.2 °F 29.68 in SE 2.0 mph 2.0 mph 80% 0.00 in 21 W/m2
16:32 49.0 °F 43.1 °F 29.68 in East 1.0 mph 2.0 mph 80% 0.00 in 18 W/m2
16:38 48.8 °F 42.9 °F 29.69 in ENE 1.0 mph 3.0 mph 80% 0.00 in 12 W/m2
16:44 48.8 °F 43.2 °F 29.69 in ENE 1.0 mph 2.0 mph 81% 0.00 in 9 W/m2
16:50 48.6 °F 43.0 °F 29.69 in ENE 2.0 mph 2.0 mph 81% 0.00 in 9 W/m2
16:56 48.4 °F 42.8 °F 29.69 in East 2.0 mph 3.0 mph 81% 0.00 in 7 W/m2
17:02 48.0 °F 42.8 °F 29.69 in East 1.0 mph 1.0 mph 82% 0.00 in 0 W/m2
17:08 47.9 °F 42.7 °F 29.68 in NE 2.0 mph 3.0 mph 82% 0.00 in 0 W/m2
17:14 47.6 °F 42.7 °F 29.68 in ENE 2.0 mph 7.0 mph 83% 0.00 in 0 W/m2
17:26 46.9 °F 42.3 °F 29.69 in East 2.0 mph 7.0 mph 84% 0.00 in 0 W/m2
17:32 46.7 °F 42.4 °F 29.68 in ENE 4.0 mph 5.0 mph 85% 0.00 in 0 W/m2
17:38 46.3 °F 42.0 °F 29.68 in ENE 4.0 mph 5.0 mph 85% 0.00 in 0 W/m2
17:44 45.9 °F 41.9 °F 29.68 in East 3.0 mph 5.0 mph 86% 0.00 in 0 W/m2
17:50 45.5 °F 41.6 °F 29.68 in ESE 3.0 mph 3.0 mph 86% 0.00 in 0 W/m2
17:56 45.1 °F 41.5 °F 29.69 in East 3.0 mph 4.0 mph 87% 0.00 in 0 W/m2
Country Meadow, Clay, NY, USA
Compliments of Weather Underground - 2 mb